Vitagrace — 9HA2036 — position and weather

sailwx.info

Track history (hours):
 
Tides and Currents Weather Stations Pressure Air Temp Water Temp Dewpoint Dewpoint Depression Visibility Wind Speed Wind Dir Waves Ship Positions

Vitagrace

Last reported at 2018-Feb-12 06:06 UTC. Time now 2018-Feb-21 09:51 UTC.
Position N 36°11' E 014°46'.
Warning: this ship's position is 9 days out of date.

Length 225 m; draft 14.1 m.

Type: Cargo ship. MMSI: 249840000.

Date/timePositionNaut miles runAvg speedWind from/ knotsBaromVisibWave heightAir tempDewpointWater temp
2018-Feb-12 06:06N 36°11' E 014°46'111.6
2018-Feb-12 06:00N 36°11' E 014°45'611.5
2018-Feb-12 05:30N 36°13' E 014°38'611.5
2018-Feb-12 05:00N 36°15' E 014°31'611.5
2018-Feb-12 04:30N 36°17' E 014°24'611.4
2018-Feb-12 04:00N 36°19' E 014°18'611.5
2018-Feb-12 03:30N 36°21' E 014°11'611.7
2018-Feb-12 02:59N 36°23' E 014°04'611.8
2018-Feb-12 02:29N 36°25' E 013°57'611.7
2018-Feb-12 02:00N 36°27' E 013°51'611.6
2018-Feb-12 01:30N 36°29' E 013°44'  
2018-Feb-08 18:30N 36°06' W 005°22'3 5.3
2018-Feb-08 18:00N 36°08' W 005°23'4 0.2
2018-Feb-07 23:20N 36°05' W 005°22'0 0.2
2018-Feb-07 23:00N 36°05' W 005°22'0 0.5
2018-Feb-07 22:30N 36°05' W 005°22'1 1.9
2018-Feb-07 21:58N 36°04' W 005°22'4 8.7
2018-Feb-07 21:31N 35°60' W 005°23'  
2018-Feb-03 22:06N 35°60' W 024°15'410.6
2018-Feb-03 21:41N 35°60' W 024°20'210.5
2018-Feb-03 21:30N 35°60' W 024°23'510.7
2018-Feb-03 21:00N 35°60' W 024°30'510.4
2018-Feb-03 20:31N 35°60' W 024°36'510.4
2018-Feb-03 20:00N 35°60' W 024°42'1610.5
2018-Feb-03 18:30N 35°59' W 025°02'510.7
2018-Feb-03 18:01N 35°59' W 025°08'510.8
2018-Feb-03 17:31N 35°59' W 025°15'510.9
2018-Feb-03 17:00N 35°60' W 025°22'1111.2
2018-Feb-03 16:00N 36°00' W 025°36'611.2
2018-Feb-03 15:30N 36°00' W 025°42'611.0
2018-Feb-03 15:00N 36°00' W 025°49'510.9
2018-Feb-03 14:30N 36°00' W 025°56'611.0
2018-Feb-03 14:00N 35°60' W 026°03'611.1
2018-Feb-03 13:25N 35°60' W 026°11'  
Track history (hours):
 
Tides and Currents Weather Stations Pressure Air Temp Water Temp Dewpoint Dewpoint Depression Visibility Wind Speed Wind Dir Waves Ship Positions

Vitagrace

Last reported at 2018-Feb-12 06:06 UTC. Time now 2018-Feb-21 09:51 UTC.
Position N 36°11' E 014°46'.
Warning: this ship's position is 9 days out of date.

Length 225 m; draft 14.1 m.

Type: Cargo ship. MMSI: 249840000.

Date/timePositionNaut miles runAvg speedWind from/ knotsBaromVisibWave heightAir tempDewpointWater temp
2018-Feb-12 06:06N 36°11' E 014°46'111.6
2018-Feb-12 06:00N 36°11' E 014°45'611.5
2018-Feb-12 05:30N 36°13' E 014°38'611.5
2018-Feb-12 05:00N 36°15' E 014°31'611.5
2018-Feb-12 04:30N 36°17' E 014°24'611.4
2018-Feb-12 04:00N 36°19' E 014°18'611.5
2018-Feb-12 03:30N 36°21' E 014°11'611.7
2018-Feb-12 02:59N 36°23' E 014°04'611.8
2018-Feb-12 02:29N 36°25' E 013°57'611.7
2018-Feb-12 02:00N 36°27' E 013°51'611.6
2018-Feb-12 01:30N 36°29' E 013°44'  
2018-Feb-08 18:30N 36°06' W 005°22'3 5.3
2018-Feb-08 18:00N 36°08' W 005°23'4 0.2
2018-Feb-07 23:20N 36°05' W 005°22'0 0.2
2018-Feb-07 23:00N 36°05' W 005°22'0 0.5
2018-Feb-07 22:30N 36°05' W 005°22'1 1.9
2018-Feb-07 21:58N 36°04' W 005°22'4 8.7
2018-Feb-07 21:31N 35°60' W 005°23'  
2018-Feb-03 22:06N 35°60' W 024°15'410.6
2018-Feb-03 21:41N 35°60' W 024°20'210.5
2018-Feb-03 21:30N 35°60' W 024°23'510.7
2018-Feb-03 21:00N 35°60' W 024°30'510.4
2018-Feb-03 20:31N 35°60' W 024°36'510.4
2018-Feb-03 20:00N 35°60' W 024°42'1610.5
2018-Feb-03 18:30N 35°59' W 025°02'510.7
2018-Feb-03 18:01N 35°59' W 025°08'510.8
2018-Feb-03 17:31N 35°59' W 025°15'510.9
2018-Feb-03 17:00N 35°60' W 025°22'1111.2
2018-Feb-03 16:00N 36°00' W 025°36'611.2
2018-Feb-03 15:30N 36°00' W 025°42'611.0
2018-Feb-03 15:00N 36°00' W 025°49'510.9
2018-Feb-03 14:30N 36°00' W 025°56'611.0
2018-Feb-03 14:00N 35°60' W 026°03'611.1
2018-Feb-03 13:25N 35°60' W 026°11'  

Dump ship's entire track history